Columbia, Iowa
Current Conditions -  °F | °C
As of 7:55 PM on Saturday 20 Dec 2014 (Local Time) from KOXV Reporting Station
Haze Haze  
Wind Chill: 31°   Ceiling: 300
Heat Index: 36°   Visibility: 2.5mi
Dew Point: 34°   Wind: 6mph
Humidity: 93%   Direction: 150°SSE
Pressure: 30.13"   Gusts: NA
Location:  41.18°N, 93.15°W
Report Text: KOXV 210155Z AUTO 15005KT 2 1/2SM BR OVC003 02/01 A3013 RMK AO2
Loading
Personal Weather Stations






























Interactive Weather Map New forecast layout! Learn more

10-Day Weather Forecast

Advertisements
Track Severe Weather on mobile